Time;durP1;ratioP1;P1;durP2;ratioP2;P2;SDS_P1;SDS_P2;PMS_P1;PMS_P2;Temp;Humidity;BMP_temperature;BMP_pressure;BME280_temperature;BME280_humidity;BME280_pressure;Samples;Min_cycle;Max_cycle;Signal;HPM_P1;HPM_P2
2021/10/06 00:01:56;;;;;;;6.00;3.28;;;;;;;9.93;55.34;101953.94;5045414;28;20440;-63
2021/10/06 00:04:22;;;;;;;4.95;3.08;;;;;;;9.93;55.79;101961.72;5039591;28;20047;-63
2021/10/06 00:06:48;;;;;;;4.60;3.08;;;;;;;9.81;55.57;101940.00;5048015;28;20211;-63
2021/10/06 00:09:14;;;;;;;5.97;3.38;;;;;;;9.90;55.45;101951.31;5042563;28;20056;-63
2021/10/06 00:11:40;;;;;;;5.35;3.30;;;;;;;9.82;55.63;101945.22;5034226;28;20102;-62
2021/10/06 00:14:07;;;;;;;9.57;2.90;;;;;;;9.86;55.95;101962.56;5049642;28;20048;-62
2021/10/06 00:16:34;;;;;;;4.32;3.03;;;;;;;9.85;55.51;101953.00;5036272;28;20392;-63
2021/10/06 00:18:59;;;;;;;5.78;3.00;;;;;;;9.82;55.78;101945.22;5029343;28;20049;-64
2021/10/06 00:21:26;;;;;;;4.45;2.88;;;;;;;9.96;55.53;101958.25;5045654;28;20160;-64
2021/10/06 00:23:51;;;;;;;7.47;3.35;;;;;;;9.76;55.57;101929.59;5032351;28;20797;-64
2021/10/06 00:26:20;;;;;;;6.47;2.95;;;;;;;9.88;55.71;101963.44;5030529;28;20037;-62
2021/10/06 00:28:46;;;;;;;4.32;3.05;;;;;;;9.88;55.77;101954.78;5031542;28;20049;-63
2021/10/06 00:31:12;;;;;;;5.05;3.00;;;;;;;9.88;55.45;101954.78;5015187;28;20183;-63
2021/10/06 00:33:38;;;;;;;12.02;3.38;;;;;;;9.85;56.05;101955.59;5035852;28;20041;-63
2021/10/06 00:36:04;;;;;;;5.65;3.10;;;;;;;9.84;56.26;101956.47;5042807;28;20124;-63
2021/10/06 00:38:29;;;;;;;6.47;3.65;;;;;;;9.84;55.74;101953.88;5030939;28;20041;-64
2021/10/06 00:40:55;;;;;;;4.55;3.20;;;;;;;9.87;56.07;101956.50;5030802;28;20045;-63
2021/10/06 00:43:21;;;;;;;5.07;3.20;;;;;;;9.81;55.67;101945.19;5031989;28;20453;-64
2021/10/06 00:45:47;;;;;;;6.43;3.28;;;;;;;9.71;56.26;101933.91;5036396;28;20107;-62
2021/10/06 00:48:13;;;;;;;7.05;3.25;;;;;;;9.88;55.53;101957.38;5042433;28;20058;-62
2021/10/06 00:50:40;;;;;;;5.82;3.08;;;;;;;9.92;56.01;101961.72;5021527;28;20046;-62
2021/10/06 00:53:06;;;;;;;7.75;3.85;;;;;;;9.97;55.70;101968.66;5032071;28;20047;-62
2021/10/06 00:55:32;;;;;;;9.85;3.00;;;;;;;9.89;55.42;101951.31;5042161;28;20140;-63
2021/10/06 00:57:57;;;;;;;5.32;3.50;;;;;;;10.03;55.41;101973.03;5040802;28;20044;-62
2021/10/06 01:00:23;;;;;;;5.47;2.95;;;;;;;9.98;55.75;101967.81;5028185;28;20183;-61
2021/10/06 01:02:49;;;;;;;5.75;3.33;;;;;;;9.91;55.96;101970.38;5056322;28;20135;-62
2021/10/06 01:05:14;;;;;;;7.47;4.03;;;;;;;9.92;55.70;101964.31;5039408;28;20106;-62
2021/10/06 01:07:40;;;;;;;5.65;3.15;;;;;;;9.92;55.56;101962.59;5029386;28;20444;-62
2021/10/06 01:10:08;;;;;;;7.35;3.92;;;;;;;9.92;55.75;101967.78;5022550;28;20049;-62
2021/10/06 01:12:34;;;;;;;4.72;3.38;;;;;;;9.89;55.61;101953.91;5014586;28;20046;-63
2021/10/06 01:15:01;;;;;;;5.60;3.47;;;;;;;9.97;55.45;101968.66;5031605;28;20060;-62
2021/10/06 01:17:28;;;;;;;5.10;3.60;;;;;;;9.91;55.85;101971.22;5029243;28;20068;-63
2021/10/06 01:19:53;;;;;;;7.72;3.60;;;;;;;9.87;55.31;101966.91;5036940;28;20060;-62
2021/10/06 01:22:19;;;;;;;5.45;3.47;;;;;;;9.86;56.22;101972.94;5047435;28;20052;-63
2021/10/06 01:24:45;;;;;;;6.68;3.42;;;;;;;9.83;55.91;101970.34;5031618;28;20041;-62
2021/10/06 01:27:10;;;;;;;6.50;3.45;;;;;;;9.81;56.09;101963.38;5020038;28;20045;-62
2021/10/06 01:29:37;;;;;;;5.82;3.38;;;;;;;9.84;56.03;101974.66;5035845;28;20048;-63
2021/10/06 01:32:16;;;;;;;5.25;3.25;;;;;;;9.74;56.19;101971.13;5036901;28;20570;-62
2021/10/06 01:34:43;;;;;;;8.32;3.33;;;;;;;9.76;56.51;101973.75;5049897;28;20045;-63
2021/10/06 01:37:09;;;;;;;10.50;3.88;;;;;;;9.67;56.18;101960.72;5047040;28;20037;-63
2021/10/06 01:39:35;;;;;;;5.72;3.45;;;;;;;9.76;56.36;101976.34;5030610;28;20178;-61
2021/10/06 01:42:01;;;;;;;10.25;3.72;;;;;;;9.76;56.02;101976.34;5028455;28;20038;-64
2021/10/06 01:44:27;;;;;;;6.43;3.70;;;;;;;9.73;56.28;101973.75;5021571;28;20033;-63
2021/10/06 01:46:53;;;;;;;7.10;3.05;;;;;;;9.70;56.46;101981.50;5040984;28;20040;-63
2021/10/06 01:49:19;;;;;;;8.15;3.88;;;;;;;9.68;56.33;101975.47;5046526;28;20032;-64
2021/10/06 01:51:44;;;;;;;7.45;3.75;;;;;;;9.68;56.85;101978.91;5030602;28;20678;-63
2021/10/06 01:54:10;;;;;;;6.43;3.90;;;;;;;9.65;56.45;101984.09;5019451;28;20584;-63
2021/10/06 01:56:36;;;;;;;7.03;3.50;;;;;;;9.62;56.50;101984.06;5030593;28;20056;-62
2021/10/06 01:59:03;;;;;;;6.95;3.55;;;;;;;9.65;56.81;101980.63;5027739;28;20046;-63
2021/10/06 02:01:29;;;;;;;5.80;3.63;;;;;;;9.66;56.50;101982.34;5000757;28;20128;-63
2021/10/06 02:03:55;;;;;;;10.18;3.88;;;;;;;9.65;56.51;101986.69;5043706;28;20132;-62
2021/10/06 02:06:20;;;;;;;6.90;3.60;;;;;;;9.51;56.46;101961.50;5034768;28;20037;-62
2021/10/06 02:08:46;;;;;;;7.90;3.88;;;;;;;9.63;56.44;101987.56;5031683;28;20484;-61
2021/10/06 02:11:12;;;;;;;5.70;3.80;;;;;;;9.62;56.58;101991.00;5034245;28;20045;-62
2021/10/06 02:13:38;;;;;;;5.25;3.38;;;;;;;9.62;56.66;101989.28;5029405;28;20540;-62
2021/10/06 02:16:04;;;;;;;4.43;3.40;;;;;;;9.64;56.88;101994.47;5039593;28;20045;-63
2021/10/06 02:18:30;;;;;;;7.35;3.33;;;;;;;9.66;56.71;101995.34;5042569;28;20329;-62
2021/10/06 02:20:56;;;;;;;8.05;3.45;;;;;;;9.66;57.01;101998.81;5027609;28;20048;-62
2021/10/06 02:23:22;;;;;;;6.95;3.97;;;;;;;9.65;56.73;101998.78;5031224;28;20524;-61
2021/10/06 02:25:48;;;;;;;5.18;3.70;;;;;;;9.63;56.77;102000.53;5036843;28;20086;-63
2021/10/06 02:28:14;;;;;;;10.82;3.42;;;;;;;9.61;56.88;102003.13;5028400;28;20041;-62
2021/10/06 02:30:40;;;;;;;9.73;3.63;;;;;;;9.68;56.73;102007.47;5047182;28;20053;-64
2021/10/06 02:33:05;;;;;;;6.68;3.75;;;;;;;9.69;57.10;102003.16;5042511;28;20033;-63
2021/10/06 02:35:31;;;;;;;7.88;4.22;;;;;;;9.73;56.75;102007.53;5039369;28;20115;-62
2021/10/06 02:37:57;;;;;;;8.68;3.63;;;;;;;9.63;56.56;101996.19;5044097;28;20094;-63
2021/10/06 02:40:23;;;;;;;7.90;3.95;;;;;;;9.61;56.86;101994.44;5049196;28;20048;-62
2021/10/06 02:42:50;;;;;;;7.05;4.00;;;;;;;9.69;56.99;102017.00;5033866;28;20491;-62
2021/10/06 02:45:17;;;;;;;6.90;3.92;;;;;;;9.67;57.08;102005.75;5034765;28;20038;-63
2021/10/06 02:47:43;;;;;;;9.10;3.65;;;;;;;9.68;57.03;102012.66;5017594;28;20053;-63
2021/10/06 02:50:11;;;;;;;10.45;4.03;;;;;;;9.70;56.90;102016.16;5050447;28;20206;-64
2021/10/06 02:52:37;;;;;;;7.10;4.00;;;;;;;9.66;57.65;102014.41;5039329;28;20049;-64
2021/10/06 02:55:04;;;;;;;5.97;3.67;;;;;;;9.60;57.33;102014.34;5033057;28;20037;-63
2021/10/06 02:57:30;;;;;;;7.20;3.95;;;;;;;9.62;57.78;102017.84;5033134;28;20505;-64
2021/10/06 02:59:55;;;;;;;6.07;3.67;;;;;;;9.62;57.80;102016.97;5037186;28;20047;-62
2021/10/06 03:02:21;;;;;;;6.55;4.20;;;;;;;9.68;57.36;102014.41;5034258;28;20238;-63
2021/10/06 03:04:47;;;;;;;9.52;4.35;;;;;;;9.55;57.02;102013.47;4999514;28;20041;-64
2021/10/06 03:07:13;;;;;;;8.57;3.92;;;;;;;9.64;57.66;102023.03;5013221;28;20046;-63
2021/10/06 03:09:38;;;;;;;6.03;3.95;;;;;;;9.57;57.81;102011.75;5022561;28;20072;-62
2021/10/06 03:12:04;;;;;;;11.35;4.13;;;;;;;9.63;57.58;102026.50;5032255;28;20497;-63
2021/10/06 03:14:30;;;;;;;7.50;4.07;;;;;;;9.65;57.50;102027.38;5014087;28;20046;-63
2021/10/06 03:16:56;;;;;;;7.70;4.07;;;;;;;9.75;57.75;102034.38;5015187;28;20046;-62
2021/10/06 03:19:22;;;;;;;5.00;3.72;;;;;;;9.76;57.42;102020.53;5028169;28;20048;-63
2021/10/06 03:21:47;;;;;;;14.48;4.10;;;;;;;9.90;57.70;102029.25;5030071;28;20065;-64
2021/10/06 03:24:13;;;;;;;10.23;4.05;;;;;;;9.97;57.77;102028.44;5038794;28;20527;-64
2021/10/06 03:26:39;;;;;;;7.15;4.07;;;;;;;10.01;57.32;102026.72;5013107;28;20465;-64
2021/10/06 03:29:04;;;;;;;11.43;4.68;;;;;;;10.02;57.85;102024.16;5027841;28;20041;-64
2021/10/06 03:31:30;;;;;;;9.48;4.10;;;;;;;10.04;57.57;102031.97;5013799;28;20042;-62
2021/10/06 03:33:57;;;;;;;10.77;4.68;;;;;;;9.96;57.07;102031.03;5027571;28;20099;-64
2021/10/06 03:36:23;;;;;;;10.90;4.47;;;;;;;9.89;57.43;102032.72;5032514;28;20548;-64
2021/10/06 03:38:49;;;;;;;15.93;4.63;;;;;;;9.88;57.63;102032.72;5033415;28;20079;-62
2021/10/06 03:41:15;;;;;;;10.25;4.53;;;;;;;9.92;57.44;102031.88;5022275;28;20397;-63
2021/10/06 03:43:41;;;;;;;11.20;4.63;;;;;;;9.79;57.69;102033.50;5031033;28;20045;-63
2021/10/06 03:46:07;;;;;;;7.63;3.90;;;;;;;9.60;57.92;102010.88;5045986;28;20039;-63
2021/10/06 03:48:32;;;;;;;7.28;4.07;;;;;;;9.68;57.99;102038.63;5040776;28;20052;-63
2021/10/06 03:50:58;;;;;;;7.70;4.30;;;;;;;9.66;58.07;102042.97;5034436;28;20049;-62
2021/10/06 03:53:24;;;;;;;7.00;4.43;;;;;;;9.69;57.82;102031.72;5033713;28;20087;-61
2021/10/06 03:55:49;;;;;;;8.95;4.30;;;;;;;9.74;58.11;102036.09;5045231;28;20493;-62
2021/10/06 03:58:16;;;;;;;7.60;4.75;;;;;;;9.74;57.40;102033.50;5050582;28;20037;-62
2021/10/06 04:00:42;;;;;;;8.55;4.45;;;;;;;9.73;58.05;102031.75;5035824;28;20090;-62
2021/10/06 04:03:10;;;;;;;7.00;4.93;;;;;;;9.65;57.70;102033.44;5031208;28;20437;-63
2021/10/06 04:05:36;;;;;;;7.55;4.38;;;;;;;9.66;57.84;102032.59;5035442;28;20045;-63
2021/10/06 04:08:02;;;;;;;9.45;4.95;;;;;;;9.71;57.95;102043.88;5034452;28;20117;-63
2021/10/06 04:10:27;;;;;;;8.10;4.97;;;;;;;9.80;58.26;102043.06;5033549;28;20045;-61
2021/10/06 04:12:53;;;;;;;12.60;4.80;;;;;;;9.89;57.89;102052.66;5048881;28;20136;-62
2021/10/06 04:15:19;;;;;;;9.43;4.53;;;;;;;9.96;57.36;102050.09;5049908;28;20118;-62
2021/10/06 04:17:45;;;;;;;14.90;5.28;;;;;;;9.97;57.71;102051.84;5051860;28;20524;-63
2021/10/06 04:20:10;;;;;;;6.57;4.43;;;;;;;9.96;57.11;102050.09;5038686;28;20029;-63
2021/10/06 04:22:36;;;;;;;10.40;4.80;;;;;;;10.01;57.28;102050.13;5045965;28;20037;-63
2021/10/06 04:25:03;;;;;;;8.65;4.88;;;;;;;10.07;57.27;102047.56;5045242;28;20036;-63
2021/10/06 04:27:29;;;;;;;8.52;5.00;;;;;;;10.10;57.30;102053.63;5033734;28;20037;-64
2021/10/06 04:29:55;;;;;;;7.80;4.53;;;;;;;10.06;56.93;102046.69;5038179;28;20132;-63
2021/10/06 04:32:20;;;;;;;12.13;4.60;;;;;;;9.97;57.31;102032.78;5034890;28;20139;-62
2021/10/06 04:34:46;;;;;;;7.32;4.28;;;;;;;10.13;57.64;102051.06;5033519;28;20046;-61
2021/10/06 04:37:12;;;;;;;6.70;4.78;;;;;;;10.08;57.27;102057.09;5032799;28;20072;-61
2021/10/06 04:39:39;;;;;;;11.88;4.85;;;;;;;10.02;57.10;102063.13;5023909;28;20454;-63
2021/10/06 04:42:05;;;;;;;10.30;5.03;;;;;;;9.94;57.41;102059.63;5030377;28;20049;-62
2021/10/06 04:44:31;;;;;;;11.48;5.13;;;;;;;9.90;57.55;102062.16;5026806;28;20501;-62
2021/10/06 04:46:57;;;;;;;8.70;5.22;;;;;;;9.89;57.01;102063.06;5030845;28;20063;-61
2021/10/06 04:49:23;;;;;;;8.00;5.07;;;;;;;9.88;57.45;102058.72;5031328;28;20183;-61
2021/10/06 04:51:49;;;;;;;9.52;5.18;;;;;;;9.92;56.62;102068.25;5045687;28;20057;-62
2021/10/06 04:54:14;;;;;;;8.80;4.95;;;;;;;10.02;57.42;102060.53;5029745;28;20417;-61
2021/10/06 04:56:40;;;;;;;11.82;5.13;;;;;;;10.18;57.20;102066.72;5030422;28;20136;-61
2021/10/06 04:59:06;;;;;;;13.55;5.47;;;;;;;10.24;56.61;102069.34;4999344;28;20041;-61
2021/10/06 05:01:32;;;;;;;10.02;5.50;;;;;;;10.22;56.83;102070.19;5010182;28;20464;-67
2021/10/06 05:03:58;;;;;;;10.15;5.57;;;;;;;10.26;57.27;102074.56;5036882;28;20465;-52
2021/10/06 05:06:24;;;;;;;13.00;6.13;;;;;;;10.38;56.88;102074.63;5029288;28;20112;-54
2021/10/06 05:08:49;;;;;;;9.45;5.20;;;;;;;10.48;56.34;102081.59;5024549;28;20460;-58
2021/10/06 05:11:15;;;;;;;17.15;5.65;;;;;;;10.37;57.04;102075.47;5045038;28;20063;-50
2021/10/06 05:13:41;;;;;;;17.85;5.28;;;;;;;10.37;56.62;102083.25;5038176;28;20038;-57
2021/10/06 05:16:07;;;;;;;11.98;6.28;;;;;;;10.45;56.78;102082.47;5021421;28;20041;-52
2021/10/06 05:18:32;;;;;;;15.75;5.82;;;;;;;10.46;56.67;102085.94;5041679;28;20424;-50
2021/10/06 05:20:58;;;;;;;14.45;6.07;;;;;;;10.25;56.30;102072.81;5029596;28;20155;-49
2021/10/06 05:23:24;;;;;;;13.57;6.13;;;;;;;10.36;55.91;102087.63;5027479;28;20052;-54
2021/10/06 05:25:49;;;;;;;12.55;6.30;;;;;;;10.32;56.20;102087.56;5027693;28;20505;-48
2021/10/06 05:28:15;;;;;;;11.20;5.97;;;;;;;10.47;55.90;102085.91;5024399;28;20573;-51
2021/10/06 05:30:42;;;;;;;12.95;6.20;;;;;;;10.67;55.21;102098.16;5028457;28;20045;-49
2021/10/06 05:33:07;;;;;;;15.13;6.47;;;;;;;10.62;55.07;102075.56;5025680;28;20068;-51
2021/10/06 05:35:33;;;;;;;21.55;6.63;;;;;;;10.78;54.67;102099.06;5026782;28;20532;-49
2021/10/06 05:37:59;;;;;;;12.80;6.22;;;;;;;10.85;54.95;102093.00;5032012;28;20042;-50
2021/10/06 05:40:25;;;;;;;11.48;6.30;;;;;;;10.90;54.37;102088.69;5026607;28;20521;-52
2021/10/06 05:42:51;;;;;;;13.48;6.82;;;;;;;10.98;54.26;102103.47;5026937;28;20425;-50
2021/10/06 05:45:16;;;;;;;13.32;6.60;;;;;;;11.02;54.15;102101.75;5027298;28;20041;-48
2021/10/06 05:47:42;;;;;;;11.23;6.65;;;;;;;10.99;54.02;102104.34;5023386;28;20069;-49
2021/10/06 05:50:09;;;;;;;15.93;6.68;;;;;;;11.04;53.98;102113.88;5022883;28;20400;-52
2021/10/06 05:52:35;;;;;;;10.60;5.72;;;;;;;11.09;53.50;102111.31;5023565;28;20566;-55
2021/10/06 05:55:03;;;;;;;12.90;5.78;;;;;;;11.17;53.75;102109.56;5025491;28;20509;-55
2021/10/06 05:57:29;;;;;;;9.65;5.32;;;;;;;11.12;53.15;102106.09;5027072;28;20045;-55
2021/10/06 05:59:55;;;;;;;11.27;6.45;;;;;;;11.13;52.74;102096.56;5027812;28;20056;-56
2021/10/06 06:02:20;;;;;;;9.40;5.57;;;;;;;11.74;51.98;102105.31;5023657;28;20048;-52
2021/10/06 06:04:47;;;;;;;10.00;5.90;;;;;;;12.21;50.83;102102.63;5021120;28;20041;-52
2021/10/06 06:07:12;;;;;;;12.10;5.68;;;;;;;13.94;47.18;102105.13;5009309;28;20191;-52
2021/10/06 06:09:39;;;;;;;9.23;5.22;;;;;;;14.94;45.43;102110.09;5028362;28;20528;-53
2021/10/06 06:12:09;;;;;;;11.10;6.03;;;;;;;15.26;43.26;102121.00;5039151;28;20421;-51
2021/10/06 06:14:38;;;;;;;13.13;6.53;;;;;;;16.33;41.16;102115.69;4989471;28;20179;-59
2021/10/06 06:17:04;;;;;;;13.57;5.93;;;;;;;17.44;39.29;102099.28;5026835;28;20037;-59
2021/10/06 06:19:30;;;;;;;11.43;5.63;;;;;;;18.41;37.37;102104.66;5027428;28;20051;-59
2021/10/06 06:21:55;;;;;;;10.98;6.03;;;;;;;19.47;35.81;102109.38;5025438;28;20124;-59
2021/10/06 06:24:21;;;;;;;9.18;5.82;;;;;;;20.47;33.58;102116.47;5026273;28;20501;-63
2021/10/06 06:26:47;;;;;;;10.63;5.95;;;;;;;20.50;32.38;102118.16;5022693;28;20535;-58
2021/10/06 06:29:12;;;;;;;8.02;5.97;;;;;;;21.19;31.39;102111.13;5024044;28;20516;-61
2021/10/06 06:31:38;;;;;;;10.32;6.45;;;;;;;21.56;30.87;102108.72;5019918;28;20061;-49
2021/10/06 06:34:04;;;;;;;11.10;5.93;;;;;;;22.15;30.14;102106.16;5026723;28;20478;-55
2021/10/06 06:36:29;;;;;;;11.57;6.47;;;;;;;22.50;29.22;102109.91;5027980;28;20420;-48
2021/10/06 06:38:55;;;;;;;14.93;6.25;;;;;;;22.89;27.99;102112.53;5014823;28;20150;-47
2021/10/06 06:41:21;;;;;;;9.48;6.35;;;;;;;23.83;27.62;102120.34;5031284;28;20048;-49
2021/10/06 06:43:47;;;;;;;8.95;5.88;;;;;;;23.40;27.61;102114.47;5008496;28;20580;-49
2021/10/06 06:46:13;;;;;;;12.70;6.60;;;;;;;22.55;28.73;102121.19;5011251;28;20049;-50
2021/10/06 06:48:38;;;;;;;8.60;6.32;;;;;;;22.17;28.50;102104.31;5044336;28;20065;-46
2021/10/06 06:51:04;;;;;;;17.67;6.63;;;;;;;22.18;28.36;102108.69;5029381;28;20107;-50
2021/10/06 06:53:30;;;;;;;12.70;7.28;;;;;;;22.38;27.79;102105.16;5029319;28;20045;-47
2021/10/06 06:55:58;;;;;;;13.25;6.25;;;;;;;22.57;27.34;102114.00;5028983;28;20108;-46
2021/10/06 06:58:24;;;;;;;15.07;6.72;;;;;;;23.64;26.58;102113.31;5027318;28;20080;-48
2021/10/06 07:00:50;;;;;;;7.65;5.60;;;;;;;24.26;25.65;102111.03;5009910;28;20061;-48
2021/10/06 07:03:17;;;;;;;15.32;6.13;;;;;;;24.39;24.85;102102.31;5024094;28;20038;-50
2021/10/06 07:05:44;;;;;;;11.35;6.05;;;;;;;24.28;25.10;102125.97;5009311;28;20513;-52
2021/10/06 07:08:10;;;;;;;9.50;6.68;;;;;;;24.06;24.87;102125.34;5022890;28;20084;-48
2021/10/06 07:10:36;;;;;;;10.40;6.57;;;;;;;23.94;24.79;102128.63;5027864;28;20069;-50
2021/10/06 07:13:03;;;;;;;6.65;5.68;;;;;;;23.94;24.89;102129.50;5043898;28;20127;-49
2021/10/06 07:15:28;;;;;;;10.25;6.30;;;;;;;24.03;24.93;102120.16;5024210;28;20148;-50
2021/10/06 07:17:55;;;;;;;12.60;6.13;;;;;;;24.64;24.38;102138.25;5015463;28;20144;-48
2021/10/06 07:20:20;;;;;;;11.32;5.95;;;;;;;25.53;23.89;102127.03;5009039;28;20129;-46
2021/10/06 07:22:47;;;;;;;11.15;6.45;;;;;;;25.29;23.74;102121.28;5008976;28;20539;-48
2021/10/06 07:25:14;;;;;;;9.23;6.60;;;;;;;25.66;23.17;102128.06;5007468;28;20038;-51
2021/10/06 07:27:41;;;;;;;14.95;6.72;;;;;;;25.12;23.37;102124.91;5028063;28;20037;-47
2021/10/06 07:30:07;;;;;;;11.57;6.32;;;;;;;24.72;24.25;102133.34;5027716;28;20187;-52
2021/10/06 07:32:34;;;;;;;11.15;6.70;;;;;;;24.61;24.25;102125.97;5030947;28;20555;-50
2021/10/06 07:34:59;;;;;;;10.95;6.53;;;;;;;24.22;24.50;102128.97;5031974;28;20037;-49
2021/10/06 07:37:25;;;;;;;8.75;6.32;;;;;;;24.67;24.27;102124.78;5047112;28;20131;-51
2021/10/06 07:39:51;;;;;;;17.63;7.05;;;;;;;24.80;23.75;102104.53;5030565;28;20052;-47
2021/10/06 07:42:17;;;;;;;8.52;6.40;;;;;;;24.78;23.68;102125.91;5042003;28;20048;-48
2021/10/06 07:44:43;;;;;;;11.30;5.90;;;;;;;24.74;23.25;102129.69;5011998;28;20034;-51
2021/10/06 07:47:11;;;;;;;11.20;6.97;;;;;;;24.74;23.20;102135.00;5012381;28;20209;-47
2021/10/06 07:49:37;;;;;;;12.45;6.70;;;;;;;24.58;23.38;102126.13;5027949;28;20136;-49
2021/10/06 07:52:03;;;;;;;14.82;6.80;;;;;;;24.81;23.56;102125.72;5032262;28;20041;-48
2021/10/06 07:54:29;;;;;;;11.82;5.95;;;;;;;25.28;22.88;102128.41;5031993;28;20528;-50
2021/10/06 07:56:55;;;;;;;7.72;6.32;;;;;;;25.15;23.02;102119.44;5031925;28;20041;-50
2021/10/06 07:59:20;;;;;;;13.13;5.95;;;;;;;25.27;22.65;102131.19;5024305;28;20068;-47
2021/10/06 08:01:46;;;;;;;7.85;5.38;;;;;;;25.13;22.82;102134.63;5031848;28;20086;-48
2021/10/06 08:04:12;;;;;;;10.07;5.97;;;;;;;24.75;23.11;102131.41;5030767;28;20040;-52
2021/10/06 08:06:38;;;;;;;12.45;5.60;;;;;;;24.97;22.98;102130.22;5037645;28;20111;-48
2021/10/06 08:09:05;;;;;;;10.88;5.75;;;;;;;24.81;22.88;102122.19;5012155;28;20124;-51
2021/10/06 08:11:32;;;;;;;11.48;5.50;;;;;;;24.33;23.60;102128.41;5011883;28;20478;-50
2021/10/06 08:13:58;;;;;;;10.38;5.55;;;;;;;24.49;23.35;102129.31;5027055;28;20077;-52
2021/10/06 08:16:23;;;;;;;10.88;5.32;;;;;;;24.23;24.06;102117.38;4994347;28;20131;-48
2021/10/06 08:18:49;;;;;;;14.32;6.00;;;;;;;24.40;23.94;102121.78;5011809;28;20049;-47
2021/10/06 08:21:15;;;;;;;13.10;5.65;;;;;;;24.08;23.97;102132.28;5010300;28;20092;-49
2021/10/06 08:23:41;;;;;;;13.32;6.82;;;;;;;24.39;23.87;102134.22;5031380;28;20037;-48
2021/10/06 08:26:07;;;;;;;13.32;5.88;;;;;;;24.83;23.15;102133.63;5031083;28;20049;-48
2021/10/06 08:28:32;;;;;;;15.68;7.50;;;;;;;25.35;23.11;102136.06;5030999;28;20218;-52
2021/10/06 08:30:58;;;;;;;9.32;6.03;;;;;;;25.77;22.53;102128.28;5031222;28;20045;-49
2021/10/06 08:33:24;;;;;;;11.77;6.13;;;;;;;26.20;21.86;102123.91;5012955;28;20042;-47
2021/10/06 08:35:50;;;;;;;13.98;6.55;;;;;;;26.29;21.68;102118.03;5011325;28;20046;-52
2021/10/06 08:38:16;;;;;;;10.38;5.57;;;;;;;26.33;21.41;102124.88;5026347;28;20041;-51
2021/10/06 08:40:42;;;;;;;8.75;6.32;;;;;;;26.02;21.91;102119.69;5010051;28;20195;-50
2021/10/06 08:43:10;;;;;;;9.02;5.90;;;;;;;26.04;21.79;102125.78;5023855;28;20053;-47
2021/10/06 08:45:36;;;;;;;12.23;6.22;;;;;;;26.54;21.26;102126.22;5011328;28;20448;-47
2021/10/06 08:48:04;;;;;;;8.25;5.07;;;;;;;27.79;20.69;102120.81;5042969;28;20062;-50
2021/10/06 08:50:29;;;;;;;9.40;5.22;;;;;;;28.15;19.86;102130.81;5017332;28;20452;-49
2021/10/06 08:52:55;;;;;;;11.85;5.65;;;;;;;28.44;19.46;102126.09;5031230;28;20078;-49
2021/10/06 08:55:28;;;;;;;11.23;6.13;;;;;;;28.73;19.22;102126.75;5029793;28;20060;-52
2021/10/06 08:58:00;;;;;;;6.97;6.00;;;;;;;29.10;18.78;102125.75;5031046;28;20060;-47
2021/10/06 09:00:27;;;;;;;9.27;5.85;;;;;;;28.44;19.30;102107.34;5015581;28;20099;-50
2021/10/06 09:02:52;;;;;;;10.63;5.93;;;;;;;28.06;19.29;102120.69;5010870;28;20475;-47
2021/10/06 09:05:22;;;;;;;12.85;5.97;;;;;;;27.97;19.31;102114.19;5011014;28;20048;-47
2021/10/06 09:07:59;;;;;;;8.00;6.47;;;;;;;28.70;19.25;102117.06;5010507;28;20129;-50
2021/10/06 09:10:30;;;;;;;9.35;5.82;;;;;;;28.95;18.59;102110.81;5020180;28;20519;-48
2021/10/06 09:13:07;;;;;;;11.68;5.65;;;;;;;28.79;18.83;102107.53;5029215;28;20399;-51
2021/10/06 09:15:45;;;;;;;9.35;5.65;;;;;;;29.43;18.32;102101.00;5028944;28;20503;-50
2021/10/06 09:18:16;;;;;;;7.00;5.35;;;;;;;29.24;17.74;102106.84;5030422;28;20509;-47
2021/10/06 09:20:42;;;;;;;7.53;4.68;;;;;;;28.88;18.40;102098.84;5018187;28;20066;-50
2021/10/06 09:23:11;;;;;;;9.90;6.15;;;;;;;28.80;18.60;102096.72;5010810;28;20046;-48
2021/10/06 09:25:57;;;;;;;10.25;4.63;;;;;;;29.05;18.32;102101.13;5010435;28;20065;-51
2021/10/06 09:28:34;;;;;;;13.88;5.65;;;;;;;28.81;18.25;102105.59;5010419;28;20100;-49
2021/10/06 09:31:07;;;;;;;10.68;5.15;;;;;;;28.61;18.52;102102.53;5023876;28;20037;-50
2021/10/06 09:33:43;;;;;;;12.43;5.53;;;;;;;28.93;18.25;102104.72;5029668;28;20029;-49
2021/10/06 09:36:17;;;;;;;8.65;4.97;;;;;;;29.81;17.68;102092.72;5030069;28;20041;-51
2021/10/06 09:39:00;;;;;;;10.57;5.18;;;;;;;30.54;17.31;102089.69;5029747;28;20562;-48
2021/10/06 09:41:28;;;;;;;11.45;5.75;;;;;;;31.25;17.23;102089.16;5013634;28;20472;-50
2021/10/06 09:43:58;;;;;;;11.40;5.57;;;;;;;31.41;16.68;102105.72;5009960;28;20091;-49
2021/10/06 09:46:23;;;;;;;9.13;5.40;;;;;;;31.31;16.70;102085.97;5010128;28;20045;-51
2021/10/06 09:48:49;;;;;;;10.65;5.40;;;;;;;31.65;16.66;102092.09;5008666;28;20188;-49
2021/10/06 09:51:15;;;;;;;11.90;5.45;;;;;;;32.03;16.27;102104.97;5037204;28;20045;-51
2021/10/06 09:53:48;;;;;;;10.60;5.28;;;;;;;31.44;16.26;102088.50;5028839;28;20041;-50
2021/10/06 09:56:16;;;;;;;8.32;5.28;;;;;;;30.92;16.21;102087.44;5029290;28;20083;-52
2021/10/06 09:58:42;;;;;;;7.10;4.90;;;;;;;30.14;16.70;102073.19;5029221;28;20045;-48
2021/10/06 10:01:08;;;;;;;10.68;5.28;;;;;;;29.72;17.07;102082.72;5021060;28;20533;-49
2021/10/06 10:03:35;;;;;;;10.55;5.57;;;;;;;30.07;16.85;102080.00;5029484;28;20178;-48
2021/10/06 10:06:03;;;;;;;8.07;4.88;;;;;;;29.59;17.20;102074.72;5028524;28;20084;-49
2021/10/06 10:08:28;;;;;;;17.92;5.45;;;;;;;29.26;17.84;102085.28;5029554;28;20090;-47
2021/10/06 10:10:55;;;;;;;12.00;5.35;;;;;;;29.38;17.59;102087.09;5019992;28;20046;-46
2021/10/06 10:13:22;;;;;;;12.20;5.68;;;;;;;28.71;17.97;102091.16;5009810;28;20517;-47
2021/10/06 10:15:48;;;;;;;10.40;5.20;;;;;;;28.52;18.02;102065.72;5009458;28;20078;-47
2021/10/06 10:18:14;;;;;;;11.82;5.40;;;;;;;29.21;17.94;102072.22;5009567;28;20045;-51
2021/10/06 10:20:42;;;;;;;13.70;6.32;;;;;;;30.00;17.03;102068.88;5013252;28;20470;-47
2021/10/06 10:23:12;;;;;;;7.95;6.00;;;;;;;30.66;16.91;102059.16;5044224;28;20116;-51
2021/10/06 10:25:43;;;;;;;7.60;4.90;;;;;;;30.78;16.55;102081.44;5027702;28;20037;-51
2021/10/06 10:28:20;;;;;;;10.43;5.45;;;;;;;30.09;16.56;102065.50;5027741;28;20570;-49
2021/10/06 10:30:55;;;;;;;11.88;5.38;;;;;;;29.44;17.11;102063.34;5022995;28;20088;-48
2021/10/06 10:33:44;;;;;;;5.22;4.72;;;;;;;28.84;17.75;102062.56;5009461;28;20045;-50
2021/10/06 10:36:32;;;;;;;9.77;4.05;;;;;;;28.77;17.69;102059.47;5024174;28;20429;-50
2021/10/06 10:38:58;;;;;;;;;;;;;;;29.51;17.62;102054.84;5009641;28;20486;-50
2021/10/06 10:41:55;;;;;;;7.15;4.97;;;;;;;29.60;17.06;102062.19;5017166;28;19917;-50
2021/10/06 10:44:32;;;;;;;8.55;4.82;;;;;;;29.78;16.84;102055.41;5017319;28;20045;-51
2021/10/06 10:47:04;;;;;;;7.95;4.72;;;;;;;29.02;17.33;102048.63;5008166;28;20049;-51
2021/10/06 10:49:46;;;;;;;6.97;4.70;;;;;;;28.52;17.58;102046.97;5008872;28;20057;-53
2021/10/06 10:52:13;;;;;;;7.40;4.80;;;;;;;27.92;18.30;102049.44;5023389;28;20048;-52
2021/10/06 10:54:40;;;;;;;7.00;4.68;;;;;;;28.63;18.08;102039.00;5028594;28;20052;-47
2021/10/06 10:57:19;;;;;;;10.93;5.13;;;;;;;29.77;17.69;102037.59;5028557;28;20048;-50
2021/10/06 10:59:47;;;;;;;6.55;4.60;;;;;;;30.44;16.77;102043.03;5019629;28;20042;-47
2021/10/06 11:02:20;;;;;;;;;;;;;;;29.37;17.21;102040.66;5022242;28;20115;-47
2021/10/06 11:04:56;;;;;;;6.82;4.95;;;;;;;28.64;17.61;102040.72;5028404;28;20287;-51
2021/10/06 11:07:22;;;;;;;6.95;4.47;;;;;;;28.95;17.65;102043.84;5030965;28;20068;-53
2021/10/06 11:09:49;;;;;;;5.95;4.50;;;;;;;28.73;17.63;102038.38;5031992;28;20425;-52
2021/10/06 11:12:14;;;;;;;6.15;3.92;;;;;;;28.78;17.63;102033.53;5019232;28;20129;-52
2021/10/06 11:14:42;;;;;;;8.05;4.60;;;;;;;28.79;17.76;102035.22;5011910;28;20482;-50
2021/10/06 11:17:14;;;;;;;7.22;4.60;;;;;;;29.16;17.40;102041.38;5012067;28;20528;-50
2021/10/06 11:19:46;;;;;;;7.38;4.80;;;;;;;27.98;18.27;102043.69;5027441;28;20140;-48
2021/10/06 11:22:24;;;;;;;7.03;5.78;;;;;;;27.85;18.43;102028.56;5021362;28;20543;-48
2021/10/06 11:24:53;;;;;;;8.73;4.18;;;;;;;27.17;19.07;102028.75;5032250;28;20049;-49